sensor_id;sensor_type;location;lat;lon;timestamp;P1;durP1;ratioP1;P2;durP2;ratioP2
10469;SDS011;5282;47.052;15.458;2023-02-01T00:02:09;6.20;;;5.57;;
10469;SDS011;5282;47.052;15.458;2023-02-01T00:04:37;7.70;;;6.40;;
10469;SDS011;5282;47.052;15.458;2023-02-01T00:07:03;9.93;;;8.03;;
10469;SDS011;5282;47.052;15.458;2023-02-01T00:09:35;7.17;;;6.53;;
10469;SDS011;5282;47.052;15.458;2023-02-01T00:12:02;8.90;;;7.53;;
10469;SDS011;5282;47.052;15.458;2023-02-01T00:14:30;8.40;;;7.70;;
10469;SDS011;5282;47.052;15.458;2023-02-01T00:17:03;7.67;;;6.87;;
10469;SDS011;5282;47.052;15.458;2023-02-01T00:19:30;7.47;;;6.40;;
10469;SDS011;5282;47.052;15.458;2023-02-01T00:21:57;9.57;;;6.53;;
10469;SDS011;5282;47.052;15.458;2023-02-01T00:24:24;9.93;;;7.60;;
10469;SDS011;5282;47.052;15.458;2023-02-01T00:26:53;7.87;;;6.30;;
10469;SDS011;5282;47.052;15.458;2023-02-01T00:29:21;7.37;;;5.70;;
10469;SDS011;5282;47.052;15.458;2023-02-01T00:31:49;7.70;;;5.20;;
10469;SDS011;5282;47.052;15.458;2023-02-01T00:34:17;8.17;;;5.33;;
10469;SDS011;5282;47.052;15.458;2023-02-01T00:36:45;6.57;;;5.97;;
10469;SDS011;5282;47.052;15.458;2023-02-01T00:39:15;6.03;;;5.40;;
10469;SDS011;5282;47.052;15.458;2023-02-01T00:41:42;6.47;;;4.90;;
10469;SDS011;5282;47.052;15.458;2023-02-01T00:44:10;7.10;;;5.17;;
10469;SDS011;5282;47.052;15.458;2023-02-01T00:46:37;6.00;;;4.97;;
10469;SDS011;5282;47.052;15.458;2023-02-01T00:49:04;7.57;;;5.60;;
10469;SDS011;5282;47.052;15.458;2023-02-01T00:51:32;5.47;;;4.97;;
10469;SDS011;5282;47.052;15.458;2023-02-01T00:53:59;5.77;;;5.27;;
10469;SDS011;5282;47.052;15.458;2023-02-01T00:56:26;5.57;;;5.07;;
10469;SDS011;5282;47.052;15.458;2023-02-01T00:58:54;6.93;;;5.20;;
10469;SDS011;5282;47.052;15.458;2023-02-01T01:01:23;6.53;;;5.10;;
10469;SDS011;5282;47.052;15.458;2023-02-01T01:03:57;5.80;;;5.00;;
10469;SDS011;5282;47.052;15.458;2023-02-01T01:06:34;4.93;;;4.40;;
10469;SDS011;5282;47.052;15.458;2023-02-01T01:09:07;4.87;;;4.47;;
10469;SDS011;5282;47.052;15.458;2023-02-01T01:11:36;4.70;;;4.20;;
10469;SDS011;5282;47.052;15.458;2023-02-01T01:14:22;5.13;;;4.37;;
10469;SDS011;5282;47.052;15.458;2023-02-01T01:16:58;5.27;;;4.03;;
10469;SDS011;5282;47.052;15.458;2023-02-01T01:19:30;4.80;;;4.33;;
10469;SDS011;5282;47.052;15.458;2023-02-01T01:22:00;6.57;;;4.10;;
10469;SDS011;5282;47.052;15.458;2023-02-01T01:24:31;4.93;;;4.53;;
10469;SDS011;5282;47.052;15.458;2023-02-01T01:27:03;4.80;;;4.00;;
10469;SDS011;5282;47.052;15.458;2023-02-01T01:29:33;8.07;;;5.00;;
10469;SDS011;5282;47.052;15.458;2023-02-01T01:32:04;5.43;;;4.93;;
10469;SDS011;5282;47.052;15.458;2023-02-01T01:34:34;7.80;;;5.33;;
10469;SDS011;5282;47.052;15.458;2023-02-01T01:37:02;6.30;;;4.97;;
10469;SDS011;5282;47.052;15.458;2023-02-01T01:39:32;8.33;;;5.10;;
10469;SDS011;5282;47.052;15.458;2023-02-01T01:42:03;6.13;;;5.53;;
10469;SDS011;5282;47.052;15.458;2023-02-01T01:47:30;6.03;;;5.40;;
10469;SDS011;5282;47.052;15.458;2023-02-01T01:50:05;6.13;;;5.47;;
10469;SDS011;5282;47.052;15.458;2023-02-01T01:52:38;5.93;;;5.27;;
10469;SDS011;5282;47.052;15.458;2023-02-01T01:55:12;8.87;;;5.60;;
10469;SDS011;5282;47.052;15.458;2023-02-01T01:57:43;8.40;;;5.67;;
10469;SDS011;5282;47.052;15.458;2023-02-01T02:00:14;6.00;;;5.50;;
10469;SDS011;5282;47.052;15.458;2023-02-01T02:02:47;6.20;;;5.70;;
10469;SDS011;5282;47.052;15.458;2023-02-01T02:05:22;5.83;;;5.23;;
10469;SDS011;5282;47.052;15.458;2023-02-01T02:07:52;5.63;;;5.13;;
10469;SDS011;5282;47.052;15.458;2023-02-01T02:10:22;6.13;;;5.53;;
10469;SDS011;5282;47.052;15.458;2023-02-01T02:13:13;6.20;;;5.60;;
10469;SDS011;5282;47.052;15.458;2023-02-01T02:15:48;6.00;;;5.50;;
10469;SDS011;5282;47.052;15.458;2023-02-01T02:18:26;5.43;;;5.00;;
10469;SDS011;5282;47.052;15.458;2023-02-01T02:21:14;5.90;;;5.43;;
10469;SDS011;5282;47.052;15.458;2023-02-01T02:30:02;5.63;;;5.10;;
10469;SDS011;5282;47.052;15.458;2023-02-01T02:32:55;7.83;;;5.47;;
10469;SDS011;5282;47.052;15.458;2023-02-01T02:36:01;7.97;;;5.27;;
10469;SDS011;5282;47.052;15.458;2023-02-01T02:38:36;5.67;;;5.17;;
10469;SDS011;5282;47.052;15.458;2023-02-01T02:41:13;5.83;;;4.70;;
10469;SDS011;5282;47.052;15.458;2023-02-01T02:43:59;5.63;;;5.10;;
10469;SDS011;5282;47.052;15.458;2023-02-01T02:46:52;5.37;;;4.87;;
10469;SDS011;5282;47.052;15.458;2023-02-01T02:49:48;4.20;;;3.80;;
10469;SDS011;5282;47.052;15.458;2023-02-01T02:52:33;4.57;;;4.13;;
10469;SDS011;5282;47.052;15.458;2023-02-01T02:55:24;4.27;;;3.97;;
10469;SDS011;5282;47.052;15.458;2023-02-01T02:57:54;4.50;;;4.10;;
10469;SDS011;5282;47.052;15.458;2023-02-01T03:00:44;4.73;;;4.07;;
10469;SDS011;5282;47.052;15.458;2023-02-01T03:03:30;4.03;;;3.73;;
10469;SDS011;5282;47.052;15.458;2023-02-01T03:06:16;4.30;;;4.00;;
10469;SDS011;5282;47.052;15.458;2023-02-01T03:08:44;5.37;;;4.90;;
10469;SDS011;5282;47.052;15.458;2023-02-01T03:11:13;4.90;;;4.60;;
10469;SDS011;5282;47.052;15.458;2023-02-01T03:13:43;4.70;;;4.40;;
10469;SDS011;5282;47.052;15.458;2023-02-01T03:16:15;4.73;;;4.43;;
10469;SDS011;5282;47.052;15.458;2023-02-01T03:18:52;5.13;;;4.70;;
10469;SDS011;5282;47.052;15.458;2023-02-01T03:21:25;5.03;;;4.60;;
10469;SDS011;5282;47.052;15.458;2023-02-01T03:24:00;6.50;;;4.63;;
10469;SDS011;5282;47.052;15.458;2023-02-01T03:26:33;7.57;;;5.57;;
10469;SDS011;5282;47.052;15.458;2023-02-01T03:29:07;5.57;;;5.07;;
10469;SDS011;5282;47.052;15.458;2023-02-01T03:31:35;6.13;;;5.10;;
10469;SDS011;5282;47.052;15.458;2023-02-01T03:34:03;6.20;;;5.27;;
10469;SDS011;5282;47.052;15.458;2023-02-01T03:36:34;6.63;;;5.20;;
10469;SDS011;5282;47.052;15.458;2023-02-01T03:39:05;6.53;;;4.87;;
10469;SDS011;5282;47.052;15.458;2023-02-01T03:41:37;5.53;;;5.03;;
10469;SDS011;5282;47.052;15.458;2023-02-01T03:44:12;5.77;;;5.33;;
10469;SDS011;5282;47.052;15.458;2023-02-01T03:46:43;7.30;;;5.53;;
10469;SDS011;5282;47.052;15.458;2023-02-01T03:49:16;7.53;;;5.97;;
10469;SDS011;5282;47.052;15.458;2023-02-01T03:51:48;9.03;;;5.73;;
10469;SDS011;5282;47.052;15.458;2023-02-01T03:54:17;6.00;;;5.50;;
10469;SDS011;5282;47.052;15.458;2023-02-01T03:56:46;5.83;;;5.30;;
10469;SDS011;5282;47.052;15.458;2023-02-01T03:59:14;9.87;;;5.07;;
10469;SDS011;5282;47.052;15.458;2023-02-01T04:01:41;6.87;;;5.20;;
10469;SDS011;5282;47.052;15.458;2023-02-01T04:04:08;8.60;;;5.77;;
10469;SDS011;5282;47.052;15.458;2023-02-01T04:06:36;6.70;;;6.03;;
10469;SDS011;5282;47.052;15.458;2023-02-01T04:09:04;6.40;;;5.37;;
10469;SDS011;5282;47.052;15.458;2023-02-01T04:11:31;7.80;;;5.60;;
10469;SDS011;5282;47.052;15.458;2023-02-01T04:14:00;9.23;;;5.87;;
10469;SDS011;5282;47.052;15.458;2023-02-01T04:16:29;6.87;;;6.17;;
10469;SDS011;5282;47.052;15.458;2023-02-01T04:18:56;7.00;;;6.37;;
10469;SDS011;5282;47.052;15.458;2023-02-01T04:21:24;7.43;;;5.90;;
10469;SDS011;5282;47.052;15.458;2023-02-01T04:23:51;7.03;;;6.33;;
10469;SDS011;5282;47.052;15.458;2023-02-01T04:26:20;6.67;;;6.03;;
10469;SDS011;5282;47.052;15.458;2023-02-01T04:28:47;6.50;;;5.90;;
10469;SDS011;5282;47.052;15.458;2023-02-01T04:31:14;6.63;;;6.00;;
10469;SDS011;5282;47.052;15.458;2023-02-01T04:33:42;10.43;;;6.17;;
10469;SDS011;5282;47.052;15.458;2023-02-01T04:36:09;9.17;;;6.50;;
10469;SDS011;5282;47.052;15.458;2023-02-01T04:38:36;5.97;;;5.57;;
10469;SDS011;5282;47.052;15.458;2023-02-01T04:41:03;8.53;;;6.83;;
10469;SDS011;5282;47.052;15.458;2023-02-01T04:43:32;6.67;;;6.07;;
10469;SDS011;5282;47.052;15.458;2023-02-01T04:45:59;8.37;;;6.33;;
10469;SDS011;5282;47.052;15.458;2023-02-01T04:48:26;10.13;;;6.77;;
10469;SDS011;5282;47.052;15.458;2023-02-01T04:50:53;12.90;;;7.13;;
10469;SDS011;5282;47.052;15.458;2023-02-01T04:53:19;10.23;;;7.10;;
10469;SDS011;5282;47.052;15.458;2023-02-01T04:55:47;9.17;;;7.20;;
10469;SDS011;5282;47.052;15.458;2023-02-01T04:58:15;12.17;;;7.13;;
10469;SDS011;5282;47.052;15.458;2023-02-01T05:00:43;8.10;;;6.83;;
10469;SDS011;5282;47.052;15.458;2023-02-01T05:03:12;7.53;;;6.73;;
10469;SDS011;5282;47.052;15.458;2023-02-01T05:05:39;12.50;;;7.03;;
10469;SDS011;5282;47.052;15.458;2023-02-01T05:08:06;9.43;;;7.17;;
10469;SDS011;5282;47.052;15.458;2023-02-01T05:10:33;8.50;;;6.67;;
10469;SDS011;5282;47.052;15.458;2023-02-01T05:13:00;8.23;;;7.10;;
10469;SDS011;5282;47.052;15.458;2023-02-01T05:15:45;10.47;;;7.00;;
10469;SDS011;5282;47.052;15.458;2023-02-01T05:18:12;9.27;;;7.53;;
10469;SDS011;5282;47.052;15.458;2023-02-01T05:20:39;9.70;;;6.80;;
10469;SDS011;5282;47.052;15.458;2023-02-01T05:23:06;8.73;;;7.23;;
10469;SDS011;5282;47.052;15.458;2023-02-01T05:25:33;9.97;;;7.23;;
10469;SDS011;5282;47.052;15.458;2023-02-01T05:28:00;9.77;;;7.03;;
10469;SDS011;5282;47.052;15.458;2023-02-01T05:30:27;10.40;;;7.33;;
10469;SDS011;5282;47.052;15.458;2023-02-01T05:32:58;10.20;;;7.37;;
10469;SDS011;5282;47.052;15.458;2023-02-01T05:35:25;8.73;;;6.93;;
10469;SDS011;5282;47.052;15.458;2023-02-01T05:37:52;10.60;;;7.10;;
10469;SDS011;5282;47.052;15.458;2023-02-01T05:40:19;8.60;;;6.37;;
10469;SDS011;5282;47.052;15.458;2023-02-01T05:42:46;8.50;;;7.00;;
10469;SDS011;5282;47.052;15.458;2023-02-01T05:45:13;9.83;;;7.23;;
10469;SDS011;5282;47.052;15.458;2023-02-01T05:47:40;11.10;;;9.07;;
10469;SDS011;5282;47.052;15.458;2023-02-01T05:50:08;13.93;;;8.63;;
10469;SDS011;5282;47.052;15.458;2023-02-01T05:52:36;13.97;;;8.37;;
10469;SDS011;5282;47.052;15.458;2023-02-01T05:55:03;13.20;;;7.87;;
10469;SDS011;5282;47.052;15.458;2023-02-01T05:57:30;13.37;;;9.53;;
10469;SDS011;5282;47.052;15.458;2023-02-01T05:59:57;18.33;;;10.93;;
10469;SDS011;5282;47.052;15.458;2023-02-01T06:02:24;13.00;;;8.90;;
10469;SDS011;5282;47.052;15.458;2023-02-01T06:04:51;10.90;;;8.70;;
10469;SDS011;5282;47.052;15.458;2023-02-01T06:07:19;10.90;;;7.77;;
10469;SDS011;5282;47.052;15.458;2023-02-01T06:09:47;7.57;;;6.80;;
10469;SDS011;5282;47.052;15.458;2023-02-01T06:12:13;15.00;;;6.90;;
10469;SDS011;5282;47.052;15.458;2023-02-01T06:14:41;6.73;;;6.10;;
10469;SDS011;5282;47.052;15.458;2023-02-01T06:17:08;9.53;;;6.50;;
10469;SDS011;5282;47.052;15.458;2023-02-01T06:19:35;6.47;;;5.87;;
10469;SDS011;5282;47.052;15.458;2023-02-01T06:22:03;6.03;;;5.10;;
10469;SDS011;5282;47.052;15.458;2023-02-01T06:24:32;10.40;;;5.57;;
10469;SDS011;5282;47.052;15.458;2023-02-01T06:26:59;8.57;;;5.80;;
10469;SDS011;5282;47.052;15.458;2023-02-01T06:29:27;8.87;;;6.33;;
10469;SDS011;5282;47.052;15.458;2023-02-01T06:31:53;9.47;;;7.10;;
10469;SDS011;5282;47.052;15.458;2023-02-01T06:34:20;10.30;;;7.63;;
10469;SDS011;5282;47.052;15.458;2023-02-01T06:36:48;6.77;;;6.17;;
10469;SDS011;5282;47.052;15.458;2023-02-01T06:39:16;8.00;;;7.00;;
10469;SDS011;5282;47.052;15.458;2023-02-01T06:41:44;6.57;;;5.03;;
10469;SDS011;5282;47.052;15.458;2023-02-01T06:44:12;8.70;;;5.93;;
10469;SDS011;5282;47.052;15.458;2023-02-01T06:46:39;10.37;;;5.90;;
10469;SDS011;5282;47.052;15.458;2023-02-01T06:49:06;8.03;;;5.73;;
10469;SDS011;5282;47.052;15.458;2023-02-01T06:51:33;6.00;;;5.43;;
10469;SDS011;5282;47.052;15.458;2023-02-01T06:54:00;5.57;;;5.07;;
10469;SDS011;5282;47.052;15.458;2023-02-01T06:56:27;5.40;;;4.40;;
10469;SDS011;5282;47.052;15.458;2023-02-01T06:59:01;5.97;;;5.27;;
10469;SDS011;5282;47.052;15.458;2023-02-01T07:01:30;7.73;;;4.97;;
10469;SDS011;5282;47.052;15.458;2023-02-01T07:03:57;5.30;;;4.90;;
10469;SDS011;5282;47.052;15.458;2023-02-01T07:06:23;13.93;;;5.43;;
10469;SDS011;5282;47.052;15.458;2023-02-01T07:08:50;8.27;;;5.00;;
10469;SDS011;5282;47.052;15.458;2023-02-01T07:11:21;7.10;;;5.53;;
10469;SDS011;5282;47.052;15.458;2023-02-01T07:13:48;12.90;;;6.43;;
10469;SDS011;5282;47.052;15.458;2023-02-01T07:16:18;6.07;;;5.47;;
10469;SDS011;5282;47.052;15.458;2023-02-01T07:18:46;8.87;;;5.60;;
10469;SDS011;5282;47.052;15.458;2023-02-01T07:21:13;8.33;;;6.10;;
10469;SDS011;5282;47.052;15.458;2023-02-01T07:23:41;11.90;;;6.17;;
10469;SDS011;5282;47.052;15.458;2023-02-01T07:26:09;6.73;;;6.00;;
10469;SDS011;5282;47.052;15.458;2023-02-01T07:28:38;10.37;;;6.70;;
10469;SDS011;5282;47.052;15.458;2023-02-01T07:31:05;9.07;;;6.00;;
10469;SDS011;5282;47.052;15.458;2023-02-01T07:33:35;7.20;;;6.20;;
10469;SDS011;5282;47.052;15.458;2023-02-01T07:36:03;7.13;;;5.67;;
10469;SDS011;5282;47.052;15.458;2023-02-01T07:38:32;11.57;;;6.67;;
10469;SDS011;5282;47.052;15.458;2023-02-01T07:41:02;13.23;;;6.50;;
10469;SDS011;5282;47.052;15.458;2023-02-01T07:43:31;8.53;;;5.63;;
10469;SDS011;5282;47.052;15.458;2023-02-01T07:46:00;5.93;;;5.33;;
10469;SDS011;5282;47.052;15.458;2023-02-01T07:48:28;7.77;;;6.37;;
10469;SDS011;5282;47.052;15.458;2023-02-01T07:50:59;10.93;;;5.97;;
10469;SDS011;5282;47.052;15.458;2023-02-01T07:53:29;8.87;;;6.30;;
10469;SDS011;5282;47.052;15.458;2023-02-01T07:55:57;8.47;;;6.30;;
10469;SDS011;5282;47.052;15.458;2023-02-01T07:58:25;8.33;;;5.77;;
10469;SDS011;5282;47.052;15.458;2023-02-01T08:00:52;8.27;;;5.63;;
10469;SDS011;5282;47.052;15.458;2023-02-01T08:03:37;8.83;;;5.50;;
10469;SDS011;5282;47.052;15.458;2023-02-01T08:06:06;7.63;;;5.07;;
10469;SDS011;5282;47.052;15.458;2023-02-01T08:08:33;4.43;;;4.17;;
10469;SDS011;5282;47.052;15.458;2023-02-01T08:11:01;6.57;;;4.63;;
10469;SDS011;5282;47.052;15.458;2023-02-01T08:13:29;5.93;;;4.20;;
10469;SDS011;5282;47.052;15.458;2023-02-01T08:15:57;5.90;;;4.10;;
10469;SDS011;5282;47.052;15.458;2023-02-01T08:18:24;7.97;;;4.27;;
10469;SDS011;5282;47.052;15.458;2023-02-01T08:20:54;5.00;;;4.10;;
10469;SDS011;5282;47.052;15.458;2023-02-01T08:23:23;4.90;;;4.43;;
10469;SDS011;5282;47.052;15.458;2023-02-01T08:25:50;8.43;;;4.50;;
10469;SDS011;5282;47.052;15.458;2023-02-01T08:28:17;4.87;;;4.30;;
10469;SDS011;5282;47.052;15.458;2023-02-01T08:30:44;5.53;;;4.70;;
10469;SDS011;5282;47.052;15.458;2023-02-01T08:33:11;14.17;;;5.60;;
10469;SDS011;5282;47.052;15.458;2023-02-01T08:35:38;5.50;;;4.37;;
10469;SDS011;5282;47.052;15.458;2023-02-01T08:38:05;5.60;;;4.93;;
10469;SDS011;5282;47.052;15.458;2023-02-01T08:40:34;4.53;;;4.13;;
10469;SDS011;5282;47.052;15.458;2023-02-01T08:43:01;6.17;;;4.33;;
10469;SDS011;5282;47.052;15.458;2023-02-01T08:45:28;6.73;;;4.30;;
10469;SDS011;5282;47.052;15.458;2023-02-01T08:47:56;8.53;;;4.47;;
10469;SDS011;5282;47.052;15.458;2023-02-01T08:50:23;5.87;;;3.97;;
10469;SDS011;5282;47.052;15.458;2023-02-01T08:52:52;8.43;;;4.60;;
10469;SDS011;5282;47.052;15.458;2023-02-01T08:55:19;9.30;;;5.07;;
10469;SDS011;5282;47.052;15.458;2023-02-01T08:57:48;7.27;;;4.60;;
10469;SDS011;5282;47.052;15.458;2023-02-01T09:00:16;8.97;;;4.60;;
10469;SDS011;5282;47.052;15.458;2023-02-01T09:02:44;8.73;;;4.70;;
10469;SDS011;5282;47.052;15.458;2023-02-01T09:05:11;5.57;;;4.10;;
10469;SDS011;5282;47.052;15.458;2023-02-01T09:07:39;11.30;;;5.30;;
10469;SDS011;5282;47.052;15.458;2023-02-01T09:10:06;9.60;;;6.27;;
10469;SDS011;5282;47.052;15.458;2023-02-01T09:12:34;13.37;;;4.93;;
10469;SDS011;5282;47.052;15.458;2023-02-01T09:15:03;11.77;;;5.60;;
10469;SDS011;5282;47.052;15.458;2023-02-01T09:17:32;9.77;;;4.90;;
10469;SDS011;5282;47.052;15.458;2023-02-01T09:19:59;7.13;;;4.37;;
10469;SDS011;5282;47.052;15.458;2023-02-01T09:22:26;8.20;;;4.37;;
10469;SDS011;5282;47.052;15.458;2023-02-01T09:24:53;8.97;;;4.80;;
10469;SDS011;5282;47.052;15.458;2023-02-01T09:27:20;10.20;;;5.10;;
10469;SDS011;5282;47.052;15.458;2023-02-01T09:29:47;6.37;;;4.60;;
10469;SDS011;5282;47.052;15.458;2023-02-01T09:32:19;14.43;;;5.10;;
10469;SDS011;5282;47.052;15.458;2023-02-01T09:34:47;8.10;;;4.90;;
10469;SDS011;5282;47.052;15.458;2023-02-01T09:37:14;12.03;;;5.27;;
10469;SDS011;5282;47.052;15.458;2023-02-01T09:39:41;14.00;;;5.87;;
10469;SDS011;5282;47.052;15.458;2023-02-01T09:42:14;11.40;;;5.73;;
10469;SDS011;5282;47.052;15.458;2023-02-01T09:44:50;5.63;;;4.70;;
10469;SDS011;5282;47.052;15.458;2023-02-01T09:47:26;5.80;;;4.50;;
10469;SDS011;5282;47.052;15.458;2023-02-01T09:49:55;9.40;;;4.40;;
10469;SDS011;5282;47.052;15.458;2023-02-01T09:52:26;5.23;;;4.73;;
10469;SDS011;5282;47.052;15.458;2023-02-01T09:54:58;7.77;;;4.70;;
10469;SDS011;5282;47.052;15.458;2023-02-01T09:57:34;8.33;;;5.00;;
10469;SDS011;5282;47.052;15.458;2023-02-01T10:00:16;8.50;;;4.93;;
10469;SDS011;5282;47.052;15.458;2023-02-01T10:02:49;5.13;;;4.73;;
10469;SDS011;5282;47.052;15.458;2023-02-01T10:05:18;7.80;;;4.97;;
10469;SDS011;5282;47.052;15.458;2023-02-01T10:07:56;7.73;;;5.73;;
10469;SDS011;5282;47.052;15.458;2023-02-01T10:10:30;12.97;;;6.03;;
10469;SDS011;5282;47.052;15.458;2023-02-01T10:13:12;5.40;;;4.90;;
10469;SDS011;5282;47.052;15.458;2023-02-01T10:15:52;8.60;;;5.67;;
10469;SDS011;5282;47.052;15.458;2023-02-01T10:18:37;7.07;;;5.20;;
10469;SDS011;5282;47.052;15.458;2023-02-01T10:21:17;6.07;;;4.20;;
10469;SDS011;5282;47.052;15.458;2023-02-01T10:26:44;9.87;;;4.90;;
10469;SDS011;5282;47.052;15.458;2023-02-01T10:29:16;6.17;;;3.53;;
10469;SDS011;5282;47.052;15.458;2023-02-01T10:31:45;6.70;;;3.93;;
10469;SDS011;5282;47.052;15.458;2023-02-01T10:34:15;3.87;;;3.40;;
10469;SDS011;5282;47.052;15.458;2023-02-01T10:36:50;5.20;;;3.50;;
10469;SDS011;5282;47.052;15.458;2023-02-01T10:39:20;5.50;;;3.20;;
10469;SDS011;5282;47.052;15.458;2023-02-01T10:41:47;7.57;;;4.03;;
10469;SDS011;5282;47.052;15.458;2023-02-01T10:44:15;3.87;;;3.53;;
10469;SDS011;5282;47.052;15.458;2023-02-01T10:46:45;9.83;;;3.77;;
10469;SDS011;5282;47.052;15.458;2023-02-01T10:49:13;3.60;;;2.80;;
10469;SDS011;5282;47.052;15.458;2023-02-01T10:51:47;3.67;;;2.17;;
10469;SDS011;5282;47.052;15.458;2023-02-01T10:54:19;3.30;;;2.90;;
10469;SDS011;5282;47.052;15.458;2023-02-01T10:56:49;4.47;;;3.43;;
10469;SDS011;5282;47.052;15.458;2023-02-01T10:59:19;5.53;;;3.43;;
10469;SDS011;5282;47.052;15.458;2023-02-01T11:01:50;4.87;;;3.53;;
10469;SDS011;5282;47.052;15.458;2023-02-01T11:04:26;5.13;;;4.00;;
10469;SDS011;5282;47.052;15.458;2023-02-01T11:07:03;9.93;;;3.90;;
10469;SDS011;5282;47.052;15.458;2023-02-01T11:09:35;7.20;;;4.20;;
10469;SDS011;5282;47.052;15.458;2023-02-01T11:12:27;6.53;;;4.13;;
10469;SDS011;5282;47.052;15.458;2023-02-01T11:15:03;11.20;;;5.07;;
10469;SDS011;5282;47.052;15.458;2023-02-01T11:17:42;4.07;;;3.53;;
10469;SDS011;5282;47.052;15.458;2023-02-01T11:20:14;5.00;;;4.57;;
10469;SDS011;5282;47.052;15.458;2023-02-01T11:22:47;5.33;;;3.83;;
10469;SDS011;5282;47.052;15.458;2023-02-01T11:25:15;6.17;;;3.30;;
10469;SDS011;5282;47.052;15.458;2023-02-01T11:27:44;8.20;;;3.20;;
10469;SDS011;5282;47.052;15.458;2023-02-01T11:30:15;6.23;;;3.90;;
10469;SDS011;5282;47.052;15.458;2023-02-01T11:32:44;7.97;;;3.80;;
10469;SDS011;5282;47.052;15.458;2023-02-01T11:35:15;5.53;;;3.37;;
10469;SDS011;5282;47.052;15.458;2023-02-01T11:37:48;6.13;;;4.17;;
10469;SDS011;5282;47.052;15.458;2023-02-01T11:40:23;5.93;;;4.30;;
10469;SDS011;5282;47.052;15.458;2023-02-01T11:42:54;4.30;;;4.00;;
10469;SDS011;5282;47.052;15.458;2023-02-01T11:45:26;4.67;;;4.13;;
10469;SDS011;5282;47.052;15.458;2023-02-01T11:47:55;3.70;;;3.40;;
10469;SDS011;5282;47.052;15.458;2023-02-01T11:50:27;7.50;;;4.50;;
10469;SDS011;5282;47.052;15.458;2023-02-01T11:53:02;2.73;;;2.00;;
10469;SDS011;5282;47.052;15.458;2023-02-01T11:55:42;7.57;;;3.50;;
10469;SDS011;5282;47.052;15.458;2023-02-01T11:58:22;3.10;;;2.73;;
10469;SDS011;5282;47.052;15.458;2023-02-01T12:01:12;3.47;;;2.13;;
10469;SDS011;5282;47.052;15.458;2023-02-01T12:04:08;5.00;;;0.90;;
10469;SDS011;5282;47.052;15.458;2023-02-01T12:06:52;2.77;;;0.50;;
10469;SDS011;5282;47.052;15.458;2023-02-01T12:09:28;4.63;;;0.50;;
10469;SDS011;5282;47.052;15.458;2023-02-01T12:12:07;5.17;;;0.30;;
10469;SDS011;5282;47.052;15.458;2023-02-01T12:18:02;1.23;;;0.50;;
10469;SDS011;5282;47.052;15.458;2023-02-01T12:23:37;0.43;;;0.43;;
10469;SDS011;5282;47.052;15.458;2023-02-01T12:26:31;0.57;;;0.33;;
10469;SDS011;5282;47.052;15.458;2023-02-01T12:29:11;4.00;;;0.60;;
10469;SDS011;5282;47.052;15.458;2023-02-01T12:31:59;0.30;;;0.30;;
10469;SDS011;5282;47.052;15.458;2023-02-01T12:34:39;1.77;;;0.40;;
10469;SDS011;5282;47.052;15.458;2023-02-01T12:37:20;0.30;;;0.20;;
10469;SDS011;5282;47.052;15.458;2023-02-01T12:40:02;0.50;;;0.50;;
10469;SDS011;5282;47.052;15.458;2023-02-01T12:42:43;0.87;;;0.20;;
10469;SDS011;5282;47.052;15.458;2023-02-01T12:45:15;0.73;;;0.20;;
10469;SDS011;5282;47.052;15.458;2023-02-01T12:47:49;2.20;;;0.63;;
10469;SDS011;5282;47.052;15.458;2023-02-01T12:50:20;0.60;;;0.40;;
10469;SDS011;5282;47.052;15.458;2023-02-01T12:52:51;1.23;;;0.43;;
10469;SDS011;5282;47.052;15.458;2023-02-01T12:55:22;2.23;;;0.40;;
10469;SDS011;5282;47.052;15.458;2023-02-01T12:57:50;4.13;;;0.60;;
10469;SDS011;5282;47.052;15.458;2023-02-01T13:00:25;0.60;;;0.60;;
10469;SDS011;5282;47.052;15.458;2023-02-01T13:02:59;1.90;;;0.40;;
10469;SDS011;5282;47.052;15.458;2023-02-01T13:05:33;0.40;;;0.40;;
10469;SDS011;5282;47.052;15.458;2023-02-01T13:08:05;0.30;;;0.30;;
10469;SDS011;5282;47.052;15.458;2023-02-01T13:10:38;0.40;;;0.40;;
10469;SDS011;5282;47.052;15.458;2023-02-01T13:13:11;0.30;;;0.30;;
10469;SDS011;5282;47.052;15.458;2023-02-01T13:15:49;1.70;;;0.50;;
10469;SDS011;5282;47.052;15.458;2023-02-01T13:18:21;0.40;;;0.40;;
10469;SDS011;5282;47.052;15.458;2023-02-01T13:20:53;0.30;;;0.30;;
10469;SDS011;5282;47.052;15.458;2023-02-01T13:23:29;2.07;;;0.40;;
10469;SDS011;5282;47.052;15.458;2023-02-01T13:26:00;2.33;;;0.70;;
10469;SDS011;5282;47.052;15.458;2023-02-01T13:28:28;0.67;;;0.50;;
10469;SDS011;5282;47.052;15.458;2023-02-01T13:31:14;0.50;;;0.50;;
10469;SDS011;5282;47.052;15.458;2023-02-01T13:34:01;2.00;;;0.40;;
10469;SDS011;5282;47.052;15.458;2023-02-01T13:36:56;1.37;;;0.60;;
10469;SDS011;5282;47.052;15.458;2023-02-01T13:39:42;1.23;;;0.60;;
10469;SDS011;5282;47.052;15.458;2023-02-01T13:42:18;0.40;;;0.40;;
10469;SDS011;5282;47.052;15.458;2023-02-01T13:44:48;0.23;;;0.23;;
10469;SDS011;5282;47.052;15.458;2023-02-01T13:47:21;0.37;;;0.33;;
10469;SDS011;5282;47.052;15.458;2023-02-01T13:49:51;0.47;;;0.47;;
10469;SDS011;5282;47.052;15.458;2023-02-01T13:52:25;1.07;;;0.40;;
10469;SDS011;5282;47.052;15.458;2023-02-01T13:55:14;0.63;;;0.40;;
10469;SDS011;5282;47.052;15.458;2023-02-01T13:58:00;0.83;;;0.50;;
10469;SDS011;5282;47.052;15.458;2023-02-01T14:00:41;1.13;;;0.40;;
10469;SDS011;5282;47.052;15.458;2023-02-01T14:03:16;0.43;;;0.40;;
10469;SDS011;5282;47.052;15.458;2023-02-01T14:05:55;0.30;;;0.30;;
10469;SDS011;5282;47.052;15.458;2023-02-01T14:08:38;0.50;;;0.50;;
10469;SDS011;5282;47.052;15.458;2023-02-01T14:11:10;1.13;;;0.40;;
10469;SDS011;5282;47.052;15.458;2023-02-01T14:23:13;0.40;;;0.40;;
10469;SDS011;5282;47.052;15.458;2023-02-01T14:25:43;0.50;;;0.50;;
10469;SDS011;5282;47.052;15.458;2023-02-01T14:28:16;0.40;;;0.40;;
10469;SDS011;5282;47.052;15.458;2023-02-01T14:30:51;0.40;;;0.40;;
10469;SDS011;5282;47.052;15.458;2023-02-01T14:33:20;0.47;;;0.47;;
10469;SDS011;5282;47.052;15.458;2023-02-01T14:36:01;0.50;;;0.50;;
10469;SDS011;5282;47.052;15.458;2023-02-01T14:38:31;1.70;;;0.50;;
10469;SDS011;5282;47.052;15.458;2023-02-01T14:44:21;0.40;;;0.40;;
10469;SDS011;5282;47.052;15.458;2023-02-01T14:47:07;2.40;;;0.80;;
10469;SDS011;5282;47.052;15.458;2023-02-01T14:49:49;0.90;;;0.60;;
10469;SDS011;5282;47.052;15.458;2023-02-01T14:52:22;1.13;;;0.60;;
10469;SDS011;5282;47.052;15.458;2023-02-01T14:55:04;1.27;;;0.50;;
10469;SDS011;5282;47.052;15.458;2023-02-01T14:57:36;1.23;;;0.70;;
10469;SDS011;5282;47.052;15.458;2023-02-01T15:00:14;2.17;;;0.80;;
10469;SDS011;5282;47.052;15.458;2023-02-01T15:02:46;1.40;;;0.83;;
10469;SDS011;5282;47.052;15.458;2023-02-01T15:08:04;1.93;;;0.90;;
10469;SDS011;5282;47.052;15.458;2023-02-01T15:10:46;1.07;;;0.73;;
10469;SDS011;5282;47.052;15.458;2023-02-01T15:13:20;0.70;;;0.63;;
10469;SDS011;5282;47.052;15.458;2023-02-01T15:16:03;1.67;;;0.90;;
10469;SDS011;5282;47.052;15.458;2023-02-01T15:18:31;0.87;;;0.87;;
10469;SDS011;5282;47.052;15.458;2023-02-01T15:20:59;0.60;;;0.57;;
10469;SDS011;5282;47.052;15.458;2023-02-01T15:23:29;0.50;;;0.50;;
10469;SDS011;5282;47.052;15.458;2023-02-01T15:25:56;0.90;;;0.80;;
10469;SDS011;5282;47.052;15.458;2023-02-01T15:28:24;1.13;;;1.03;;
10469;SDS011;5282;47.052;15.458;2023-02-01T15:30:53;0.90;;;0.90;;
10469;SDS011;5282;47.052;15.458;2023-02-01T15:33:23;1.57;;;1.53;;
10469;SDS011;5282;47.052;15.458;2023-02-01T15:35:52;2.43;;;1.43;;
10469;SDS011;5282;47.052;15.458;2023-02-01T15:38:25;1.17;;;1.07;;
10469;SDS011;5282;47.052;15.458;2023-02-01T15:40:58;1.30;;;1.20;;
10469;SDS011;5282;47.052;15.458;2023-02-01T15:43:28;1.83;;;1.20;;
10469;SDS011;5282;47.052;15.458;2023-02-01T15:45:58;3.30;;;1.10;;
10469;SDS011;5282;47.052;15.458;2023-02-01T15:48:29;1.80;;;1.70;;